createdAt,value
2023-02-22T00:01:07.599Z,3.14
2023-02-22T00:03:34.879Z,3.14
2023-02-22T00:06:06.209Z,3.08
2023-02-22T00:08:35.521Z,3.05
2023-02-22T00:11:10.008Z,3.00
2023-02-22T00:13:38.690Z,3.02
2023-02-22T00:16:06.140Z,3.02
2023-02-22T00:18:32.642Z,3.04
2023-02-22T00:21:00.748Z,3.19
2023-02-22T00:23:32.260Z,3.02
2023-02-22T00:26:01.341Z,3.00
2023-02-22T00:28:30.850Z,2.96
2023-02-22T00:30:57.527Z,2.98
2023-02-22T00:33:23.911Z,3.04
2023-02-22T00:35:50.426Z,2.95
2023-02-22T00:38:18.684Z,2.95
2023-02-22T00:40:47.651Z,2.93
2023-02-22T00:43:15.140Z,2.87
2023-02-22T00:45:43.801Z,2.83
2023-02-22T00:48:10.893Z,2.84
2023-02-22T00:50:37.794Z,2.80
2023-02-22T00:53:07.772Z,2.77
2023-02-22T00:55:36.673Z,2.75
2023-02-22T00:58:06.910Z,2.74
2023-02-22T01:00:39.867Z,2.71
2023-02-22T01:03:10.437Z,2.71
2023-02-22T01:05:38.222Z,2.67
2023-02-22T01:08:07.035Z,2.66
2023-02-22T01:10:34.614Z,2.73
2023-02-22T01:13:01.956Z,2.73
2023-02-22T01:15:33.945Z,2.70
2023-02-22T01:18:05.856Z,2.68
2023-02-22T01:20:33.818Z,2.65
2023-02-22T01:23:03.557Z,2.63
2023-02-22T01:25:31.341Z,2.64
2023-02-22T01:28:02.539Z,2.64
2023-02-22T01:30:35.690Z,2.60
2023-02-22T01:33:04.744Z,2.60
2023-02-22T01:35:38.552Z,2.62
2023-02-22T01:38:05.071Z,2.57
2023-02-22T01:40:42.723Z,2.61
2023-02-22T01:43:23.740Z,2.54
2023-02-22T01:45:57.660Z,2.55
2023-02-22T01:48:26.820Z,2.57
2023-02-22T01:51:01.339Z,2.69
2023-02-22T01:53:37.260Z,2.63
2023-02-22T01:56:11.550Z,2.68
2023-02-22T01:58:42.735Z,2.68
2023-02-22T02:01:09.771Z,2.69
2023-02-22T02:03:39.927Z,2.68
2023-02-22T02:06:13.078Z,2.63
2023-02-22T02:08:58.873Z,2.57
2023-02-22T02:11:27.131Z,2.55
2023-02-22T02:13:56.734Z,2.58
2023-02-22T02:16:35.232Z,2.54
2023-02-22T02:19:01.826Z,2.52
2023-02-22T02:22:08.626Z,2.43
2023-02-22T02:25:05.109Z,2.44
2023-02-22T02:28:29.075Z,2.39
2023-02-22T02:31:40.328Z,2.40
2023-02-22T02:34:17.136Z,2.42
2023-02-22T02:36:52.782Z,2.34
2023-02-22T02:39:37.759Z,2.38
2023-02-22T02:42:09.828Z,2.34
2023-02-22T02:44:42.104Z,2.34
2023-02-22T02:47:23.303Z,2.30
2023-02-22T02:49:59.313Z,2.31
2023-02-22T02:52:30.907Z,2.29
2023-02-22T02:55:04.879Z,2.27
2023-02-22T02:57:31.439Z,2.27
2023-02-22T02:59:57.955Z,2.25
2023-02-22T03:02:48.755Z,2.23
2023-02-22T03:05:41.457Z,2.22
2023-02-22T03:08:08.087Z,2.19
2023-02-22T03:11:15.320Z,2.19
2023-02-22T03:14:22.172Z,2.16
2023-02-22T03:16:54.510Z,2.19
2023-02-22T03:19:49.954Z,2.12
2023-02-22T03:22:30.440Z,2.14
2023-02-22T03:25:07.413Z,2.21
2023-02-22T03:27:37.466Z,2.14
2023-02-22T03:30:10.451Z,2.31
2023-02-22T03:32:50.633Z,2.20
2023-02-22T03:35:23.325Z,2.24
2023-02-22T03:37:55.916Z,2.25
2023-02-22T03:40:33.445Z,2.19
2023-02-22T03:43:10.198Z,2.18
2023-02-22T03:45:40.245Z,2.25
2023-02-22T03:48:17.534Z,2.11
2023-02-22T03:50:44.378Z,2.12
2023-02-22T03:53:11.467Z,2.07
2023-02-22T03:55:40.695Z,2.10
2023-02-22T03:58:12.284Z,2.05
2023-02-22T04:00:44.554Z,2.02
2023-02-22T04:03:13.518Z,2.03
2023-02-22T04:05:40.094Z,2.09
2023-02-22T04:08:06.438Z,2.14
2023-02-22T04:10:37.866Z,2.05
2023-02-22T04:13:07.218Z,2.04
2023-02-22T04:15:37.388Z,1.99
2023-02-22T04:18:04.175Z,2.02
2023-02-22T04:20:31.712Z,2.02
2023-02-22T04:22:58.613Z,2.00
2023-02-22T04:25:28.222Z,1.99
2023-02-22T04:27:57.447Z,1.95
2023-02-22T04:30:23.888Z,1.98
2023-02-22T04:32:50.472Z,2.04
2023-02-22T04:35:17.146Z,1.93
2023-02-22T04:37:43.647Z,1.92
2023-02-22T04:40:11.615Z,1.91
2023-02-22T04:42:39.759Z,1.91
2023-02-22T04:45:12.203Z,1.86
2023-02-22T04:47:46.911Z,1.84
2023-02-22T04:50:19.333Z,1.88
2023-02-22T04:52:52.271Z,1.85
2023-02-22T04:55:18.934Z,1.81
2023-02-22T04:57:49.980Z,1.83
2023-02-22T05:00:18.814Z,1.85
2023-02-22T05:02:45.850Z,1.81
2023-02-22T05:05:21.469Z,1.90
2023-02-22T05:07:50.886Z,1.91
2023-02-22T05:10:17.701Z,1.93
2023-02-22T05:12:44.347Z,1.86
2023-02-22T05:15:11.569Z,1.99
2023-02-22T05:17:38.058Z,2.11
2023-02-22T05:20:04.987Z,2.01
2023-02-22T05:22:44.273Z,1.89
2023-02-22T05:25:11.438Z,1.87
2023-02-22T05:27:37.961Z,1.77
2023-02-22T05:30:09.157Z,1.78
2023-02-22T05:32:35.828Z,1.74
2023-02-22T05:35:02.689Z,1.68
2023-02-22T05:37:29.094Z,1.68
2023-02-22T05:39:55.693Z,1.67
2023-02-22T05:42:25.461Z,1.82
2023-02-22T05:44:57.087Z,1.90
2023-02-22T05:47:23.544Z,1.81
2023-02-22T05:49:51.316Z,1.72
2023-02-22T05:52:18.223Z,1.65
2023-02-22T05:54:44.669Z,1.69
2023-02-22T05:57:11.031Z,1.68
2023-02-22T05:59:37.763Z,1.69
2023-02-22T06:02:06.563Z,1.62
2023-02-22T06:04:33.217Z,1.67
2023-02-22T06:06:59.647Z,1.66
2023-02-22T06:09:26.188Z,1.62
2023-02-22T06:11:54.485Z,1.63
2023-02-22T06:14:21.146Z,1.60
2023-02-22T06:16:56.395Z,1.62
2023-02-22T06:19:24.157Z,1.83
2023-02-22T06:21:51.800Z,1.86
2023-02-22T06:24:18.608Z,1.72
2023-02-22T06:26:45.380Z,1.76
2023-02-22T06:29:11.945Z,1.76
2023-02-22T06:31:38.485Z,1.74
2023-02-22T06:34:05.050Z,1.75
2023-02-22T06:36:31.632Z,1.75
2023-02-22T06:38:58.271Z,1.78
2023-02-22T06:41:24.688Z,1.77
2023-02-22T06:43:51.165Z,1.80
2023-02-22T06:46:17.721Z,1.82
2023-02-22T06:48:44.712Z,1.86
2023-02-22T06:51:11.261Z,1.85
2023-02-22T06:53:37.734Z,1.93
2023-02-22T06:56:04.480Z,1.94
2023-02-22T06:58:30.888Z,1.98
2023-02-22T07:00:57.358Z,1.99
2023-02-22T07:03:23.963Z,2.04
2023-02-22T07:05:50.448Z,2.12
2023-02-22T07:08:16.901Z,2.20
2023-02-22T07:10:43.390Z,2.25
2023-02-22T07:13:09.959Z,2.34
2023-02-22T07:15:38.270Z,2.43
2023-02-22T07:18:17.139Z,2.56
2023-02-22T07:20:43.656Z,2.70
2023-02-22T07:23:10.555Z,2.85
2023-02-22T07:25:37.272Z,2.99
2023-02-22T07:28:04.002Z,3.13
2023-02-22T07:30:34.034Z,3.21
2023-02-22T07:33:02.812Z,3.35
2023-02-22T07:35:42.728Z,3.47
2023-02-22T07:38:09.471Z,3.62
2023-02-22T07:40:38.092Z,3.77
2023-02-22T07:43:07.095Z,3.92
2023-02-22T07:45:35.631Z,4.13
2023-02-22T07:48:13.479Z,4.19
2023-02-22T07:50:43.999Z,4.33
2023-02-22T07:53:19.878Z,4.51
2023-02-22T07:55:50.879Z,4.62
2023-02-22T07:58:20.569Z,4.74
2023-02-22T08:00:48.384Z,4.90
2023-02-22T08:03:17.802Z,5.01
2023-02-22T08:05:50.148Z,5.11
2023-02-22T08:08:19.979Z,5.20
2023-02-22T08:10:47.102Z,5.32
2023-02-22T08:13:13.604Z,5.43
2023-02-22T08:15:48.462Z,5.52
2023-02-22T08:18:19.474Z,5.73
2023-02-22T08:20:48.575Z,5.83
2023-02-22T08:23:17.416Z,5.94
2023-02-22T08:25:44.509Z,6.06
2023-02-22T08:28:15.195Z,6.13
2023-02-22T08:30:45.552Z,6.19
2023-02-22T08:33:23.844Z,6.34
2023-02-22T08:35:52.860Z,6.47
2023-02-22T08:38:28.341Z,6.61
2023-02-22T08:40:55.426Z,6.73
2023-02-22T08:43:25.104Z,6.89
2023-02-22T08:45:52.439Z,7.01
2023-02-22T08:48:42.976Z,7.04
2023-02-22T08:51:09.992Z,7.09
2023-02-22T08:53:46.772Z,7.18
2023-02-22T08:56:16.572Z,7.26
2023-02-22T08:58:43.103Z,7.39
2023-02-22T09:01:19.271Z,7.48
2023-02-22T09:03:48.867Z,7.54
2023-02-22T09:06:18.816Z,7.55
2023-02-22T09:08:48.782Z,7.65
2023-02-22T09:11:19.096Z,7.73
2023-02-22T09:13:45.962Z,7.78
2023-02-22T09:16:12.454Z,7.85
2023-02-22T09:18:44.551Z,7.90
2023-02-22T09:21:14.607Z,7.90
2023-02-22T09:23:41.634Z,7.93
2023-02-22T09:26:09.469Z,8.01
2023-02-22T09:28:43.771Z,8.16
2023-02-22T09:31:10.465Z,8.27
2023-02-22T09:33:36.884Z,8.32
2023-02-22T09:36:08.909Z,8.35
2023-02-22T09:38:39.495Z,8.49
2023-02-22T09:41:35.209Z,8.68
2023-02-22T09:44:22.435Z,8.79
2023-02-22T09:46:56.264Z,8.79
2023-02-22T09:49:37.683Z,8.93
2023-02-22T09:52:14.329Z,9.08
2023-02-22T09:54:51.878Z,9.20
2023-02-22T09:57:29.079Z,9.31
2023-02-22T10:00:00.984Z,9.33
2023-02-22T10:02:32.676Z,9.48
2023-02-22T10:05:13.856Z,9.52
2023-02-22T10:07:55.674Z,9.57
2023-02-22T10:10:26.619Z,9.60
2023-02-22T10:13:10.555Z,9.78
2023-02-22T10:16:01.822Z,9.83
2023-02-22T10:19:26.531Z,9.94
2023-02-22T10:22:08.725Z,10.03
2023-02-22T10:24:50.656Z,10.18
2023-02-22T10:27:39.656Z,10.36
2023-02-22T10:30:25.286Z,10.41
2023-02-22T10:32:59.772Z,10.55
2023-02-22T10:35:41.200Z,10.61
2023-02-22T10:38:24.729Z,10.85
2023-02-22T10:40:57.978Z,10.94
2023-02-22T10:43:25.680Z,11.06
2023-02-22T10:46:01.659Z,11.19
2023-02-22T10:48:32.837Z,11.28
2023-02-22T10:51:11.552Z,11.37
2023-02-22T10:53:43.663Z,11.43
2023-02-22T10:56:10.038Z,11.53
2023-02-22T10:58:42.260Z,11.65
2023-02-22T11:01:23.638Z,11.71
2023-02-22T11:04:13.260Z,11.71
2023-02-22T11:06:54.345Z,11.81
2023-02-22T11:09:22.822Z,11.83
2023-02-22T11:12:07.189Z,11.98
2023-02-22T11:14:39.187Z,12.04
2023-02-22T11:17:08.793Z,12.19
2023-02-22T11:19:42.032Z,12.09
2023-02-22T11:22:20.070Z,12.27
2023-02-22T11:24:57.830Z,12.44
2023-02-22T11:27:38.776Z,12.69
2023-02-22T11:30:47.125Z,12.79
2023-02-22T11:33:26.204Z,12.82
2023-02-22T11:35:58.454Z,12.88
2023-02-22T11:38:32.689Z,12.99
2023-02-22T11:41:19.393Z,12.84
2023-02-22T11:43:51.007Z,13.07
2023-02-22T11:46:26.169Z,13.15
2023-02-22T11:49:06.807Z,13.10
2023-02-22T11:51:48.215Z,13.16
2023-02-22T11:54:28.828Z,13.28
2023-02-22T11:57:31.794Z,13.20
2023-02-22T12:00:24.738Z,13.25
2023-02-22T12:03:22.070Z,13.43
2023-02-22T12:06:10.341Z,13.44
2023-02-22T12:09:08.516Z,13.45
2023-02-22T12:12:01.001Z,13.61
2023-02-22T12:14:43.699Z,13.52
2023-02-22T12:17:32.297Z,13.51
2023-02-22T12:20:21.925Z,13.53
2023-02-22T12:23:16.116Z,13.66
2023-02-22T12:26:03.579Z,13.66
2023-02-22T12:28:43.693Z,13.72
2023-02-22T12:31:15.977Z,13.81
2023-02-22T12:33:54.078Z,13.77
2023-02-22T12:36:25.281Z,13.81
2023-02-22T12:39:00.571Z,13.83
2023-02-22T12:41:38.472Z,13.91
2023-02-22T12:44:22.259Z,13.95
2023-02-22T12:46:56.903Z,14.07
2023-02-22T12:49:38.544Z,13.95
2023-02-22T12:52:22.398Z,13.99
2023-02-22T12:54:58.231Z,13.97
2023-02-22T12:57:47.532Z,14.08
2023-02-22T13:00:41.768Z,14.07
2023-02-22T13:03:30.108Z,14.12
2023-02-22T13:06:16.544Z,14.05
2023-02-22T13:09:16.690Z,14.12
2023-02-22T13:12:17.382Z,14.11
2023-02-22T13:15:09.536Z,13.98
2023-02-22T13:18:01.934Z,14.05
2023-02-22T13:20:31.310Z,14.16
2023-02-22T13:23:14.791Z,14.21
2023-02-22T13:25:52.378Z,14.23
2023-02-22T13:28:31.469Z,14.18
2023-02-22T13:31:37.703Z,14.17
2023-02-22T13:34:36.384Z,14.22
2023-02-22T13:37:14.245Z,14.31
2023-02-22T13:39:46.264Z,14.30
2023-02-22T13:42:15.298Z,14.23
2023-02-22T13:45:07.819Z,14.22
2023-02-22T13:47:57.679Z,14.22
2023-02-22T13:50:43.621Z,14.21
2023-02-22T13:53:25.947Z,14.20
2023-02-22T13:55:57.058Z,14.21
2023-02-22T13:58:24.746Z,14.14
2023-02-22T14:00:57.024Z,14.16
2023-02-22T14:03:36.394Z,14.08
2023-02-22T14:06:09.693Z,14.07
2023-02-22T14:08:36.117Z,14.10
2023-02-22T14:11:31.651Z,14.07
2023-02-22T14:14:00.980Z,14.00
2023-02-22T14:16:31.473Z,13.98
2023-02-22T14:19:25.153Z,14.03
2023-02-22T14:22:03.675Z,14.00
2023-02-22T14:24:43.048Z,14.02
2023-02-22T14:27:10.486Z,13.98
2023-02-22T14:29:37.302Z,13.96
2023-02-22T14:32:13.160Z,13.95
2023-02-22T14:34:57.999Z,14.00
2023-02-22T14:37:28.719Z,13.96
2023-02-22T14:40:12.929Z,13.95
2023-02-22T14:42:45.941Z,14.00
2023-02-22T14:45:33.871Z,14.01
2023-02-22T14:48:27.427Z,13.99
2023-02-22T14:51:05.906Z,13.93
2023-02-22T14:53:49.125Z,13.95
2023-02-22T14:56:28.507Z,13.95
2023-02-22T14:59:16.813Z,13.94
2023-02-22T15:02:05.723Z,13.94
2023-02-22T15:04:37.763Z,13.89
2023-02-22T15:07:33.390Z,13.81
2023-02-22T15:11:01.487Z,13.76
2023-02-22T15:13:37.576Z,13.62
2023-02-22T15:16:08.044Z,13.57
2023-02-22T15:18:42.017Z,13.48
2023-02-22T15:21:21.901Z,13.40
2023-02-22T15:23:55.056Z,13.34
2023-02-22T15:26:42.367Z,13.24
2023-02-22T15:29:19.799Z,13.20
2023-02-22T15:31:48.827Z,13.20
2023-02-22T15:34:25.399Z,13.15
2023-02-22T15:36:57.887Z,13.06
2023-02-22T15:39:34.600Z,13.10
2023-02-22T15:42:22.018Z,13.01
2023-02-22T15:44:59.313Z,13.01
2023-02-22T15:47:29.478Z,12.94
2023-02-22T15:50:25.633Z,12.90
2023-02-22T15:53:00.799Z,12.82
2023-02-22T15:58:30.170Z,12.65
2023-02-22T16:01:11.124Z,12.58
2023-02-22T16:03:49.242Z,12.48
2023-02-22T16:06:35.837Z,12.45
2023-02-22T16:09:36.081Z,12.39
2023-02-22T16:12:10.174Z,12.32
2023-02-22T16:14:41.676Z,12.24
2023-02-22T16:17:52.648Z,12.10
2023-02-22T16:20:29.419Z,12.08
2023-02-22T16:22:59.920Z,12.02
2023-02-22T16:25:42.162Z,11.93
2023-02-22T16:28:39.165Z,11.78
2023-02-22T16:31:06.021Z,11.70
2023-02-22T16:33:41.367Z,11.58
2023-02-22T16:36:09.300Z,11.46
2023-02-22T16:38:39.450Z,11.35
2023-02-22T16:41:13.672Z,11.39
2023-02-22T16:43:46.324Z,11.29
2023-02-22T16:46:21.838Z,11.19
2023-02-22T16:48:48.437Z,11.11
2023-02-22T16:51:27.790Z,10.99
2023-02-22T16:53:56.016Z,10.94
2023-02-22T16:56:41.118Z,10.82
2023-02-22T16:59:15.350Z,10.70
2023-02-22T17:01:42.692Z,10.57
2023-02-22T17:04:24.159Z,10.49
2023-02-22T17:06:53.197Z,10.38
2023-02-22T17:09:22.475Z,10.31
2023-02-22T17:11:51.492Z,10.26
2023-02-22T17:14:23.420Z,10.21
2023-02-22T17:16:51.313Z,10.12
2023-02-22T17:19:21.201Z,10.12
2023-02-22T17:21:50.560Z,10.11
2023-02-22T17:24:24.834Z,10.05
2023-02-22T17:26:53.136Z,10.04
2023-02-22T17:29:20.618Z,10.01
2023-02-22T17:31:49.965Z,10.00
2023-02-22T17:34:16.397Z,9.93
2023-02-22T17:36:43.537Z,9.89
2023-02-22T17:39:10.741Z,9.90
2023-02-22T17:41:40.337Z,10.12
2023-02-22T17:44:09.644Z,9.99
2023-02-22T17:46:37.423Z,9.98
2023-02-22T17:49:04.681Z,9.93
2023-02-22T17:51:31.182Z,9.91
2023-02-22T17:53:57.819Z,9.87
2023-02-22T17:56:26.818Z,9.81
2023-02-22T17:58:55.350Z,9.78
2023-02-22T18:01:24.881Z,9.73
2023-02-22T18:03:53.162Z,9.68
2023-02-22T18:06:24.012Z,9.64
2023-02-22T18:08:55.762Z,9.61
2023-02-22T18:11:26.315Z,9.62
2023-02-22T18:13:54.944Z,9.55
2023-02-22T18:16:21.703Z,9.50
2023-02-22T18:18:49.487Z,9.42
2023-02-22T18:21:16.503Z,9.36
2023-02-22T18:23:44.826Z,9.30
2023-02-22T18:26:16.886Z,9.30
2023-02-22T18:28:43.748Z,9.27
2023-02-22T18:31:15.554Z,9.23
2023-02-22T18:33:49.116Z,9.18
2023-02-22T18:36:17.069Z,9.16
2023-02-22T18:38:44.661Z,9.11
2023-02-22T18:41:13.918Z,9.09
2023-02-22T18:43:44.016Z,9.07
2023-02-22T18:46:19.521Z,9.01
2023-02-22T18:48:52.413Z,8.96
2023-02-22T18:51:18.835Z,8.93
2023-02-22T18:53:50.250Z,8.93
2023-02-22T18:56:21.693Z,8.87
2023-02-22T18:59:00.982Z,8.89
2023-02-22T19:01:31.345Z,8.83
2023-02-22T19:03:58.003Z,8.81
2023-02-22T19:06:24.996Z,8.80
2023-02-22T19:08:51.531Z,8.81
2023-02-22T19:11:28.813Z,8.78
2023-02-22T19:13:58.570Z,8.78
2023-02-22T19:16:28.556Z,8.72
2023-02-22T19:18:58.538Z,8.73
2023-02-22T19:21:34.392Z,8.64
2023-02-22T19:24:01.392Z,8.64
2023-02-22T19:26:36.587Z,8.65
2023-02-22T19:29:08.549Z,8.62
2023-02-22T19:31:35.316Z,8.62
2023-02-22T19:34:11.623Z,8.59
2023-02-22T19:36:45.545Z,8.49
2023-02-22T19:39:13.683Z,8.49
2023-02-22T19:41:43.218Z,8.41
2023-02-22T19:44:13.289Z,8.35
2023-02-22T19:46:43.198Z,8.38
2023-02-22T19:49:14.634Z,8.43
2023-02-22T19:51:50.332Z,8.57
2023-02-22T19:54:19.650Z,8.50
2023-02-22T19:56:51.060Z,8.46
2023-02-22T19:59:22.873Z,8.42
2023-02-22T20:01:55.386Z,8.31
2023-02-22T20:04:24.834Z,8.23
2023-02-22T20:06:57.600Z,8.23
2023-02-22T20:09:30.294Z,8.15
2023-02-22T20:11:57.029Z,8.12
2023-02-22T20:14:28.201Z,8.05
2023-02-22T20:16:55.728Z,8.01
2023-02-22T20:19:22.823Z,7.94
2023-02-22T20:21:52.216Z,7.90
2023-02-22T20:24:19.293Z,7.84
2023-02-22T20:26:49.003Z,7.83
2023-02-22T20:29:19.047Z,7.75
2023-02-22T20:31:49.546Z,7.73
2023-02-22T20:34:18.409Z,7.69
2023-02-22T20:36:47.624Z,7.64
2023-02-22T20:39:17.162Z,7.58
2023-02-22T20:41:47.343Z,7.60
2023-02-22T20:44:17.139Z,7.50
2023-02-22T20:46:46.906Z,7.52
2023-02-22T20:49:19.888Z,7.51
2023-02-22T20:51:48.123Z,7.50
2023-02-22T20:54:20.917Z,7.53
2023-02-22T20:56:52.679Z,7.52
2023-02-22T20:59:22.128Z,7.62
2023-02-22T21:04:33.647Z,7.81
2023-02-22T21:07:03.166Z,7.87
2023-02-22T21:09:29.847Z,7.93
2023-02-22T21:11:56.339Z,7.98
2023-02-22T21:14:24.309Z,8.00
2023-02-22T21:16:52.241Z,8.08
2023-02-22T21:19:26.562Z,8.18
2023-02-22T21:22:00.868Z,8.17
2023-02-22T21:24:28.479Z,8.20
2023-02-22T21:27:00.183Z,8.25
2023-02-22T21:29:28.370Z,8.28
2023-02-22T21:32:02.183Z,8.30
2023-02-22T21:34:33.621Z,8.29
2023-02-22T21:37:00.196Z,8.32
2023-02-22T21:39:29.825Z,8.34
2023-02-22T21:42:00.242Z,8.38
2023-02-22T21:44:31.506Z,8.39
2023-02-22T21:47:02.599Z,8.45
2023-02-22T21:49:29.395Z,8.55
2023-02-22T21:51:59.159Z,8.53
2023-02-22T21:54:30.069Z,8.54
2023-02-22T21:56:56.681Z,8.59
2023-02-22T21:59:23.734Z,8.62
2023-02-22T22:01:56.127Z,8.63
2023-02-22T22:04:31.137Z,8.62
2023-02-22T22:07:00.651Z,8.66
2023-02-22T22:09:40.088Z,8.65
2023-02-22T22:12:10.215Z,8.80
2023-02-22T22:14:38.865Z,8.74
2023-02-22T22:17:07.959Z,8.76
2023-02-22T22:19:39.362Z,8.80
2023-02-22T22:22:06.098Z,8.83
2023-02-22T22:24:34.632Z,8.82
2023-02-22T22:27:13.056Z,8.79
2023-02-22T22:29:43.528Z,8.82
2023-02-22T22:32:10.823Z,8.82
2023-02-22T22:34:37.841Z,8.82
2023-02-22T22:37:04.660Z,8.81
2023-02-22T22:39:31.409Z,8.78
2023-02-22T22:41:57.938Z,8.76
2023-02-22T22:44:24.354Z,8.76
2023-02-22T22:46:54.714Z,8.77
2023-02-22T22:49:25.670Z,8.75
2023-02-22T22:51:52.580Z,8.77
2023-02-22T22:54:18.945Z,8.77
2023-02-22T22:56:46.623Z,8.80
2023-02-22T22:59:13.360Z,8.80
2023-02-22T23:01:44.352Z,8.79
2023-02-22T23:04:16.380Z,8.80
2023-02-22T23:06:45.731Z,8.83
2023-02-22T23:09:18.943Z,8.79
2023-02-22T23:11:50.740Z,8.80
2023-02-22T23:14:21.250Z,8.82
2023-02-22T23:16:51.736Z,8.84
2023-02-22T23:19:20.473Z,8.88
2023-02-22T23:21:48.868Z,8.88
2023-02-22T23:24:21.993Z,8.92
2023-02-22T23:26:48.872Z,8.92
2023-02-22T23:29:18.097Z,8.89
2023-02-22T23:31:48.734Z,8.88
2023-02-22T23:34:23.202Z,8.92
2023-02-22T23:36:54.246Z,8.95
2023-02-22T23:39:22.618Z,9.03
2023-02-22T23:41:59.227Z,9.01
2023-02-22T23:44:30.100Z,8.94
2023-02-22T23:46:56.777Z,8.94
2023-02-22T23:49:27.032Z,8.90
2023-02-22T23:51:56.102Z,8.89
2023-02-22T23:54:36.233Z,8.85
2023-02-22T23:57:11.109Z,8.84
2023-02-22T23:59:41.598Z,8.85
